createdAt,value
2018-07-12T00:01:15.716Z,17.30
2018-07-12T00:03:42.914Z,17.20
2018-07-12T00:06:10.101Z,17.20
2018-07-12T00:11:04.719Z,17.20
2018-07-12T00:13:31.880Z,17.20
2018-07-12T00:15:59.062Z,17.10
2018-07-12T00:18:26.239Z,17.10
2018-07-12T00:20:53.427Z,17.20
2018-07-12T00:23:20.593Z,17.10
2018-07-12T00:25:47.775Z,17.10
2018-07-12T00:28:14.941Z,17.10
2018-07-12T00:30:42.122Z,17.20
2018-07-12T00:33:09.305Z,17.20
2018-07-12T00:35:36.516Z,17.20
2018-07-12T00:38:03.700Z,17.20
2018-07-12T00:40:30.880Z,17.30
2018-07-12T00:42:58.053Z,17.30
2018-07-12T00:45:25.235Z,17.30
2018-07-12T00:47:52.400Z,17.30
2018-07-12T00:50:19.586Z,17.30
2018-07-12T00:52:46.758Z,17.30
2018-07-12T00:57:41.373Z,17.30
2018-07-12T01:02:35.974Z,17.30
2018-07-12T01:07:30.617Z,17.20
2018-07-12T01:09:57.787Z,17.20
2018-07-12T01:12:24.975Z,17.20
2018-07-12T01:14:52.163Z,17.20
2018-07-12T01:17:19.342Z,17.20
2018-07-12T01:19:46.523Z,17.20
2018-07-12T01:22:13.714Z,17.20
2018-07-12T01:24:40.883Z,17.20
2018-07-12T01:27:08.062Z,17.20
2018-07-12T01:29:35.253Z,17.20
2018-07-12T01:32:02.447Z,17.10
2018-07-12T01:34:29.612Z,17.20
2018-07-12T01:36:56.790Z,17.10
2018-07-12T01:41:52.167Z,17.20
2018-07-12T01:44:19.328Z,17.20
2018-07-12T01:46:46.495Z,17.20
2018-07-12T01:49:13.652Z,17.20
2018-07-12T01:51:40.821Z,17.20
2018-07-12T01:54:07.985Z,17.10
2018-07-12T01:56:35.159Z,17.20
2018-07-12T01:59:02.320Z,17.20
2018-07-12T02:01:29.503Z,17.20
2018-07-12T02:03:56.671Z,17.20
2018-07-12T02:06:23.835Z,17.20
2018-07-12T02:08:50.995Z,17.20
2018-07-12T02:11:18.171Z,17.30
2018-07-12T02:13:45.329Z,17.30
2018-07-12T02:16:12.511Z,17.30
2018-07-12T02:21:07.095Z,17.20
2018-07-12T02:23:34.247Z,17.20
2018-07-12T02:26:01.433Z,17.10
2018-07-12T02:28:28.584Z,17.10
2018-07-12T02:30:55.756Z,17.10
2018-07-12T02:33:22.920Z,17.10
2018-07-12T02:35:50.082Z,17.10
2018-07-12T02:38:17.247Z,17.10
2018-07-12T02:40:44.407Z,17.10
2018-07-12T02:43:11.580Z,17.10
2018-07-12T02:45:38.748Z,17.10
2018-07-12T02:48:05.921Z,17.10
2018-07-12T02:50:33.078Z,17.10
2018-07-12T02:53:00.249Z,17.00
2018-07-12T02:55:27.421Z,17.00
2018-07-12T03:00:22.029Z,16.90
2018-07-12T03:05:16.615Z,16.90
2018-07-12T03:07:43.780Z,16.80
2018-07-12T03:12:38.368Z,16.80
2018-07-12T03:15:05.548Z,16.80
2018-07-12T03:20:00.224Z,16.70
2018-07-12T03:22:27.385Z,16.70
2018-07-12T03:27:21.991Z,16.60
2018-07-12T03:32:16.583Z,16.60
2018-07-12T03:34:43.739Z,16.70
2018-07-12T03:37:10.931Z,16.60
2018-07-12T03:39:38.089Z,16.60
2018-07-12T03:42:05.247Z,16.60
2018-07-12T03:44:32.408Z,16.60
2018-07-12T03:46:59.590Z,16.60
2018-07-12T03:49:26.775Z,16.50
2018-07-12T03:51:53.969Z,16.60
2018-07-12T03:54:21.120Z,16.60
2018-07-12T03:56:48.301Z,16.60
2018-07-12T04:04:10.568Z,16.60
2018-07-12T04:09:05.673Z,16.60
2018-07-12T04:11:32.843Z,16.70
2018-07-12T04:16:27.580Z,16.70
2018-07-12T04:18:54.744Z,16.70
2018-07-12T04:21:21.907Z,16.80
2018-07-12T04:23:49.081Z,16.80
2018-07-12T04:26:16.249Z,16.80
2018-07-12T04:31:10.855Z,16.80
2018-07-12T04:33:38.032Z,16.80
2018-07-12T04:36:05.199Z,16.90
2018-07-12T04:38:32.369Z,16.90
2018-07-12T04:40:59.528Z,17.00
2018-07-12T04:43:26.699Z,17.00
2018-07-12T04:45:53.855Z,17.10
2018-07-12T04:48:21.023Z,17.10
2018-07-12T04:50:48.197Z,17.20
2018-07-12T04:53:15.356Z,17.20
2018-07-12T04:55:42.507Z,17.30
2018-07-12T04:58:09.736Z,17.30
2018-07-12T05:00:36.833Z,17.30
2018-07-12T05:03:04.095Z,17.40
2018-07-12T05:05:31.336Z,17.30
2018-07-12T05:07:58.504Z,17.40
2018-07-12T05:12:53.119Z,17.50
2018-07-12T05:17:47.719Z,17.50
2018-07-12T05:22:42.297Z,17.40
2018-07-12T05:25:09.461Z,17.40
2018-07-12T05:27:36.631Z,17.50
2018-07-12T05:34:58.795Z,17.60
2018-07-12T05:44:50.640Z,17.90
2018-07-12T05:47:18.759Z,18.00
2018-07-12T05:49:46.955Z,17.90
2018-07-12T05:52:15.061Z,18.00
2018-07-12T05:54:43.211Z,18.00
2018-07-12T05:57:11.328Z,18.10
2018-07-12T06:02:18.312Z,18.10
2018-07-12T06:04:46.595Z,18.20
2018-07-12T06:07:18.980Z,18.20
2018-07-12T06:14:43.332Z,18.20
2018-07-12T06:17:11.448Z,18.20
2018-07-12T06:19:39.598Z,18.20
2018-07-12T06:22:07.724Z,18.20
2018-07-12T06:24:35.952Z,18.30
2018-07-12T06:27:04.036Z,18.20
2018-07-12T06:29:32.183Z,18.20
2018-07-12T06:32:00.296Z,18.20
2018-07-12T06:34:28.423Z,18.30
2018-07-12T06:36:56.624Z,18.30
2018-07-12T06:39:24.760Z,18.40
2018-07-12T06:41:53.006Z,18.40
2018-07-12T06:46:49.069Z,18.40
2018-07-12T06:49:17.192Z,18.40
2018-07-12T06:51:45.323Z,18.50
2018-07-12T06:54:13.459Z,18.60
2018-07-12T06:59:09.488Z,18.80
2018-07-12T07:01:37.611Z,18.80
2018-07-12T07:04:05.832Z,18.80
2018-07-12T07:06:33.953Z,18.80
2018-07-12T07:09:02.083Z,18.80
2018-07-12T07:13:58.122Z,18.70
2018-07-12T07:18:54.173Z,18.80
2018-07-12T07:23:50.239Z,18.90
2018-07-12T07:26:18.474Z,18.90
2018-07-12T07:28:46.585Z,18.90
2018-07-12T07:31:14.729Z,19.10
2018-07-12T07:33:42.861Z,19.00
2018-07-12T07:36:10.988Z,18.90
2018-07-12T07:38:39.108Z,18.90
2018-07-12T07:41:07.261Z,18.90
2018-07-12T07:43:35.424Z,19.00
2018-07-12T07:46:03.548Z,19.20
2018-07-12T07:48:31.678Z,19.30
2018-07-12T07:50:59.807Z,19.40
2018-07-12T07:55:55.848Z,19.80
2018-07-12T08:03:19.921Z,19.80
2018-07-12T08:05:48.059Z,19.80
2018-07-12T08:08:16.184Z,19.80
2018-07-12T08:10:44.324Z,19.80
2018-07-12T08:13:12.500Z,19.70
2018-07-12T08:15:40.632Z,19.80
2018-07-12T08:18:08.755Z,19.90
2018-07-12T08:20:36.892Z,20.00
2018-07-12T08:23:05.043Z,20.10
2018-07-12T08:30:34.780Z,20.00
2018-07-12T08:33:02.911Z,20.00
2018-07-12T08:35:31.028Z,20.10
2018-07-12T08:40:27.127Z,20.30
2018-07-12T08:42:55.230Z,20.30
2018-07-12T08:45:23.379Z,20.40
2018-07-12T08:47:51.514Z,20.40
2018-07-12T08:50:19.643Z,20.50
2018-07-12T08:52:47.824Z,20.40
2018-07-12T08:55:16.103Z,20.30
2018-07-12T08:57:44.676Z,20.30
2018-07-12T09:00:12.811Z,20.30
2018-07-12T09:02:41.292Z,20.30
2018-07-12T09:05:09.389Z,20.40
2018-07-12T09:07:37.520Z,20.40
2018-07-12T09:10:05.845Z,20.60
2018-07-12T09:12:34.975Z,20.80
2018-07-12T09:15:03.088Z,20.90
2018-07-12T09:17:31.203Z,20.90
2018-07-12T09:19:59.344Z,20.80
2018-07-12T09:22:27.480Z,20.80
2018-07-12T09:24:55.624Z,20.90
2018-07-12T09:29:51.679Z,21.20
2018-07-12T09:34:47.755Z,21.50
2018-07-12T09:37:15.884Z,21.40
2018-07-12T09:42:11.927Z,21.30
2018-07-12T09:44:40.065Z,21.60
2018-07-12T09:47:08.228Z,21.80
2018-07-12T09:49:36.324Z,21.90
2018-07-12T09:52:08.715Z,21.80
2018-07-12T09:57:16.278Z,21.70
2018-07-12T09:59:44.398Z,21.60
2018-07-12T10:04:46.109Z,22.20
2018-07-12T10:07:19.795Z,22.40
2018-07-12T10:09:53.424Z,22.40
2018-07-12T10:12:27.032Z,22.50
2018-07-12T10:15:00.806Z,22.50
2018-07-12T10:17:34.620Z,22.50
2018-07-12T10:20:03.653Z,22.40
2018-07-12T10:22:31.795Z,22.40
2018-07-12T10:24:59.919Z,22.40
2018-07-12T10:29:56.391Z,22.80
2018-07-12T10:32:24.592Z,22.90
2018-07-12T10:34:52.703Z,23.00
2018-07-12T10:37:20.836Z,23.00
2018-07-12T10:39:48.965Z,23.10
2018-07-12T10:42:17.104Z,23.10
2018-07-12T10:44:45.230Z,23.10
2018-07-12T10:47:13.363Z,23.00
2018-07-12T10:49:41.495Z,23.00
2018-07-12T10:52:09.664Z,23.00
2018-07-12T10:54:37.794Z,23.10
2018-07-12T10:57:06.097Z,23.30
2018-07-12T10:59:34.327Z,23.30
2018-07-12T11:02:02.472Z,23.40
2018-07-12T11:04:30.640Z,23.50
2018-07-12T11:06:58.728Z,23.40
2018-07-12T11:09:26.870Z,23.60
2018-07-12T11:11:55.004Z,23.60
2018-07-12T11:14:23.128Z,23.70
2018-07-12T11:16:51.271Z,23.80
2018-07-12T11:21:47.388Z,24.60
2018-07-12T11:24:15.524Z,24.50
2018-07-12T11:26:43.640Z,24.50
2018-07-12T11:29:11.760Z,24.20
2018-07-12T11:31:39.896Z,23.80
2018-07-12T11:36:35.993Z,23.60
2018-07-12T11:39:05.846Z,23.70
2018-07-12T11:41:33.996Z,24.00
2018-07-12T11:44:02.120Z,24.20
2018-07-12T11:46:30.239Z,24.00
2018-07-12T11:48:58.388Z,23.80
2018-07-12T11:51:26.528Z,23.80
2018-07-12T11:53:54.649Z,23.50
2018-07-12T11:56:22.792Z,23.60
2018-07-12T11:58:51.043Z,23.70
2018-07-12T12:01:19.184Z,23.80
2018-07-12T12:03:47.323Z,23.80
2018-07-12T12:06:15.445Z,24.00
2018-07-12T12:08:43.596Z,24.30
2018-07-12T12:11:11.732Z,24.50
2018-07-12T12:13:39.871Z,24.50
2018-07-12T12:18:35.900Z,24.70
2018-07-12T12:21:04.024Z,24.80
2018-07-12T12:23:32.196Z,24.90
2018-07-12T12:26:00.293Z,25.30
2018-07-12T12:28:28.440Z,25.80
2018-07-12T12:30:56.568Z,26.20
2018-07-12T12:33:24.721Z,26.50
2018-07-12T12:35:52.807Z,26.70
2018-07-12T12:38:20.935Z,27.00
2018-07-12T12:40:49.052Z,27.20
2018-07-12T12:43:17.200Z,27.30
2018-07-12T12:45:45.455Z,27.00
2018-07-12T12:48:13.591Z,27.10
2018-07-12T12:53:09.665Z,27.30
2018-07-12T12:55:37.796Z,27.00
2018-07-12T13:00:33.893Z,26.40
2018-07-12T13:03:02.028Z,26.20
2018-07-12T13:05:30.148Z,26.00
2018-07-12T13:07:58.297Z,26.70
2018-07-12T13:10:26.423Z,27.40
2018-07-12T13:12:54.546Z,28.10
2018-07-12T13:15:22.691Z,28.70
2018-07-12T13:17:50.829Z,29.00
2018-07-12T13:20:19.066Z,29.50
2018-07-12T13:22:47.175Z,29.80
2018-07-12T13:25:15.285Z,30.00
2018-07-12T13:27:43.436Z,30.50
2018-07-12T13:30:11.562Z,31.00
2018-07-12T13:32:39.675Z,31.00
2018-07-12T13:35:07.797Z,31.40
2018-07-12T13:37:35.954Z,31.80
2018-07-12T13:40:04.083Z,31.80
2018-07-12T13:42:32.219Z,31.50
2018-07-12T13:45:00.330Z,31.90
2018-07-12T13:47:28.450Z,32.20
2018-07-12T13:49:56.574Z,32.80
2018-07-12T13:52:24.724Z,33.00
2018-07-12T13:54:52.871Z,33.30
2018-07-12T13:57:20.995Z,33.30
2018-07-12T13:59:49.148Z,32.80
2018-07-12T14:02:17.260Z,32.60
2018-07-12T14:07:13.338Z,31.40
2018-07-12T14:09:41.512Z,31.70
2018-07-12T14:12:09.618Z,32.30
2018-07-12T14:14:37.745Z,33.40
2018-07-12T14:17:05.861Z,34.60
2018-07-12T14:19:33.999Z,35.10
2018-07-12T14:22:02.122Z,34.90
2018-07-12T14:24:30.277Z,34.20
2018-07-12T14:26:58.408Z,33.50
2018-07-12T14:29:26.535Z,33.50
2018-07-12T14:31:54.666Z,34.40
2018-07-12T14:34:22.790Z,35.20
2018-07-12T14:36:50.899Z,35.60
2018-07-12T14:39:19.030Z,35.20
2018-07-12T14:41:47.157Z,35.30
2018-07-12T14:44:15.296Z,35.00
2018-07-12T14:46:43.420Z,35.20
2018-07-12T14:49:11.560Z,34.90
2018-07-12T14:51:39.682Z,34.60
2018-07-12T14:54:07.803Z,34.10
2018-07-12T14:56:35.936Z,34.60
2018-07-12T14:59:04.104Z,35.30
2018-07-12T15:01:32.379Z,35.80
2018-07-12T15:04:00.501Z,36.30
2018-07-12T15:06:28.616Z,37.10
2018-07-12T15:08:56.758Z,37.40
2018-07-12T15:11:24.887Z,36.70
2018-07-12T15:16:20.972Z,33.90
2018-07-12T15:18:49.148Z,32.20
2018-07-12T15:21:17.297Z,31.00
2018-07-12T15:23:45.437Z,30.00
2018-07-12T15:26:13.584Z,29.20
2018-07-12T15:28:41.680Z,28.50
2018-07-12T15:31:09.833Z,28.30
2018-07-12T15:33:37.949Z,27.90
2018-07-12T15:38:34.052Z,27.10
2018-07-12T15:41:02.198Z,27.00
2018-07-12T15:43:30.308Z,26.80
2018-07-12T15:45:58.448Z,26.70
2018-07-12T15:48:26.571Z,26.90
2018-07-12T15:53:22.692Z,27.20
2018-07-12T15:55:50.823Z,27.40
2018-07-12T15:58:18.944Z,27.50
2018-07-12T16:00:47.085Z,27.70
2018-07-12T16:03:15.198Z,27.80
2018-07-12T16:05:43.336Z,28.00
2018-07-12T16:08:11.594Z,28.10
2018-07-12T16:10:39.720Z,28.20
2018-07-12T16:15:35.776Z,28.50
2018-07-12T16:20:32.670Z,28.60
2018-07-12T16:23:00.817Z,28.40
2018-07-12T16:25:28.951Z,28.40
2018-07-12T16:27:57.084Z,28.40
2018-07-12T16:30:25.256Z,28.50
2018-07-12T16:32:53.372Z,28.40
2018-07-12T16:35:21.509Z,28.30
2018-07-12T16:37:49.677Z,28.30
2018-07-12T16:40:17.817Z,28.30
2018-07-12T16:45:13.859Z,28.30
2018-07-12T16:47:41.984Z,28.10
2018-07-12T16:50:10.136Z,27.90
2018-07-12T16:52:38.244Z,27.80
2018-07-12T16:55:06.483Z,27.80
2018-07-12T16:57:34.603Z,27.80
2018-07-12T17:00:02.748Z,27.60
2018-07-12T17:02:30.871Z,27.40
2018-07-12T17:04:59.007Z,27.50
2018-07-12T17:07:27.152Z,27.60
2018-07-12T17:09:55.322Z,27.60
2018-07-12T17:12:23.452Z,27.60
2018-07-12T17:17:19.502Z,27.20
2018-07-12T17:22:15.547Z,27.20
2018-07-12T17:24:43.668Z,27.30
2018-07-12T17:27:11.858Z,27.30
2018-07-12T17:29:39.943Z,27.30
2018-07-12T17:32:08.060Z,27.20
2018-07-12T17:34:36.168Z,27.10
2018-07-12T17:37:04.322Z,27.10
2018-07-12T17:39:32.433Z,27.00
2018-07-12T17:42:00.603Z,27.00
2018-07-12T17:44:28.727Z,26.80
2018-07-12T17:46:56.891Z,26.80
2018-07-12T17:49:24.996Z,26.70
2018-07-12T17:51:53.149Z,26.70
2018-07-12T17:54:21.294Z,26.70
2018-07-12T17:56:49.424Z,26.50
2018-07-12T17:59:17.543Z,26.50
2018-07-12T18:01:45.689Z,26.50
2018-07-12T18:04:13.808Z,26.30
2018-07-12T18:06:41.971Z,26.30
2018-07-12T18:09:10.089Z,26.20
2018-07-12T18:11:38.229Z,26.20
2018-07-12T18:14:06.344Z,26.10
2018-07-12T18:16:34.471Z,25.90
2018-07-12T18:19:02.609Z,25.70
2018-07-12T18:21:30.765Z,25.60
2018-07-12T18:23:58.885Z,25.60
2018-07-12T18:26:27.007Z,25.60
2018-07-12T18:28:55.152Z,25.60
2018-07-12T18:31:23.271Z,25.50
2018-07-12T18:36:19.339Z,25.60
2018-07-12T18:38:47.490Z,25.60
2018-07-12T18:41:15.652Z,25.50
2018-07-12T18:46:11.977Z,25.20
2018-07-12T18:48:40.111Z,25.10
2018-07-12T18:51:08.290Z,25.00
2018-07-12T18:53:36.408Z,24.90
2018-07-12T18:56:04.535Z,24.80
2018-07-12T18:58:32.710Z,24.80
2018-07-12T19:01:00.811Z,24.70
2018-07-12T19:03:28.940Z,24.70
2018-07-12T19:05:57.065Z,24.60
2018-07-12T19:08:25.215Z,24.50
2018-07-12T19:10:53.350Z,24.50
2018-07-12T19:13:21.476Z,24.40
2018-07-12T19:15:49.607Z,24.30
2018-07-12T19:18:17.720Z,24.30
2018-07-12T19:20:45.903Z,24.10
2018-07-12T19:23:14.020Z,24.10
2018-07-12T19:25:42.158Z,24.00
2018-07-12T19:28:10.293Z,23.90
2018-07-12T19:30:38.416Z,23.80
2018-07-12T19:35:34.520Z,23.60
2018-07-12T19:38:02.676Z,23.50
2018-07-12T19:40:30.815Z,23.40
2018-07-12T19:42:58.943Z,23.20
2018-07-12T19:45:27.077Z,23.10
2018-07-12T19:47:55.259Z,23.10
2018-07-12T19:50:23.368Z,23.00
2018-07-12T19:52:51.503Z,23.00
2018-07-12T19:55:19.657Z,23.00
2018-07-12T19:57:47.808Z,22.90
2018-07-12T20:00:15.932Z,22.90
2018-07-12T20:02:44.045Z,22.80
2018-07-12T20:05:12.175Z,22.80
2018-07-12T20:07:40.340Z,22.70
2018-07-12T20:10:08.459Z,22.60
2018-07-12T20:12:36.579Z,22.60
2018-07-12T20:15:05.276Z,22.60
2018-07-12T20:17:33.376Z,22.60
2018-07-12T20:20:01.516Z,22.50
2018-07-12T20:22:29.651Z,22.40
2018-07-12T20:24:57.784Z,22.30
2018-07-12T20:27:25.920Z,22.20
2018-07-12T20:29:54.040Z,22.10
2018-07-12T20:32:22.179Z,22.00
2018-07-12T20:34:50.320Z,22.00
2018-07-12T20:42:14.602Z,22.00
2018-07-12T20:44:42.744Z,21.90
2018-07-12T20:47:10.848Z,21.80
2018-07-12T20:49:38.992Z,21.70
2018-07-12T20:52:07.199Z,21.70
2018-07-12T20:54:35.342Z,21.70
2018-07-12T20:57:03.480Z,21.70
2018-07-12T20:59:31.611Z,21.70
2018-07-12T21:01:59.743Z,21.70
2018-07-12T21:04:27.867Z,21.70
2018-07-12T21:06:55.997Z,21.70
2018-07-12T21:09:24.125Z,21.70
2018-07-12T21:14:20.392Z,21.50
2018-07-12T21:16:48.548Z,21.50
2018-07-12T21:19:16.663Z,21.40
2018-07-12T21:21:44.797Z,21.30
2018-07-12T21:26:40.840Z,21.30
2018-07-12T21:31:36.932Z,21.20
2018-07-12T21:34:05.077Z,21.20
2018-07-12T21:36:33.200Z,21.20
2018-07-12T21:39:02.372Z,21.10
2018-07-12T21:41:30.495Z,21.10
2018-07-12T21:46:26.534Z,21.00
2018-07-12T21:51:22.569Z,20.90
2018-07-12T21:56:18.674Z,20.80
2018-07-12T21:58:46.800Z,20.80
2018-07-12T22:01:14.928Z,20.80
2018-07-12T22:03:43.056Z,20.70
2018-07-12T22:06:11.175Z,20.70
2018-07-12T22:08:39.313Z,20.70
2018-07-12T22:11:07.439Z,20.60
2018-07-12T22:18:32.696Z,20.50
2018-07-12T22:21:00.861Z,20.50
2018-07-12T22:23:28.987Z,20.40
2018-07-12T22:25:57.117Z,20.40
2018-07-12T22:28:25.272Z,20.30
2018-07-12T22:30:53.391Z,20.30
2018-07-12T22:33:21.531Z,20.30
2018-07-12T22:35:49.659Z,20.20
2018-07-12T22:38:17.802Z,20.20
2018-07-12T22:40:45.951Z,20.10
2018-07-12T22:48:10.046Z,20.00
2018-07-12T22:50:38.122Z,19.90
2018-07-12T22:55:34.244Z,19.80
2018-07-12T22:58:02.387Z,19.80
2018-07-12T23:00:30.520Z,19.70
2018-07-12T23:02:58.826Z,19.70
2018-07-12T23:05:26.944Z,19.60
2018-07-12T23:07:55.096Z,19.60
2018-07-12T23:10:23.215Z,19.50
2018-07-12T23:12:51.348Z,19.50
2018-07-12T23:15:19.479Z,19.50
2018-07-12T23:17:47.605Z,19.60
2018-07-12T23:20:15.745Z,19.50
2018-07-12T23:22:43.912Z,19.50
2018-07-12T23:25:12.036Z,19.50
2018-07-12T23:30:08.127Z,19.50
2018-07-12T23:32:36.253Z,19.40
2018-07-12T23:37:32.292Z,19.30
2018-07-12T23:42:28.375Z,19.20
2018-07-12T23:44:56.508Z,19.20
2018-07-12T23:49:52.851Z,19.00
2018-07-12T23:54:49.003Z,18.90
2018-07-12T23:59:45.007Z,18.70
